Time;durP1;ratioP1;P1;durP2;ratioP2;P2;SDS_P1;SDS_P2;PMS_P1;PMS_P2;Temp;Humidity;BMP_temperature;BMP_pressure;BME280_temperature;BME280_humidity;BME280_pressure;Samples;Min_cycle;Max_cycle;Signal;HPM_P1;HPM_P2
2022/06/19 00:00:14;;;;;;;14.60;3.60;;;;;;;13.83;100.00;100454.13;7399787;19;20426;-56
2022/06/19 00:02:46;;;;;;;14.07;3.03;;;;;;;13.77;100.00;100450.56;7391710;19;20471;-58
2022/06/19 00:05:16;;;;;;;21.70;3.93;;;;;;;13.77;100.00;100453.16;7401838;19;20385;-58
2022/06/19 00:07:46;;;;;;;21.43;3.80;;;;;;;13.74;100.00;100453.09;7395946;19;20982;-56
2022/06/19 00:10:16;;;;;;;19.30;3.53;;;;;;;13.71;100.00;100454.72;7398821;19;20426;-58
2022/06/19 00:12:48;;;;;;;15.97;3.70;;;;;;;13.67;100.00;100437.34;7396421;19;20877;-59
2022/06/19 00:15:18;;;;;;;16.50;4.20;;;;;;;13.66;100.00;100420.03;7401472;19;20824;-59
2022/06/19 00:17:47;;;;;;;16.50;3.20;;;;;;;13.71;100.00;100410.66;7390796;19;20400;-58
2022/06/19 00:20:17;;;;;;;26.10;9.40;;;;;;;13.69;100.00;100404.56;7399248;19;20429;-58
2022/06/19 00:22:47;;;;;;;23.30;5.60;;;;;;;13.74;100.00;100398.63;7393054;19;20424;-58
2022/06/19 00:25:17;;;;;;;17.53;3.40;;;;;;;13.72;100.00;100382.19;7401057;19;20378;-55
2022/06/19 00:27:49;;;;;;;26.70;4.60;;;;;;;13.69;100.00;100374.31;7395179;19;20411;-58
2022/06/19 00:30:21;;;;;;;20.10;3.70;;;;;;;13.67;100.00;100364.75;7399122;19;20486;-58
2022/06/19 00:32:51;;;;;;;20.73;4.90;;;;;;;13.63;100.00;100364.69;7394343;19;20735;-58
2022/06/19 00:35:21;;;;;;;23.67;3.87;;;;;;;13.61;100.00;100348.25;7401142;19;20760;-57
2022/06/19 00:37:53;;;;;;;16.00;3.73;;;;;;;13.57;100.00;100333.44;7393727;19;20413;-58
2022/06/19 00:40:24;;;;;;;18.87;4.10;;;;;;;13.57;100.00;100319.59;7399151;19;20416;-59
2022/06/19 00:42:56;;;;;;;14.47;3.37;;;;;;;13.60;100.00;100323.13;7392000;19;20749;-59
2022/06/19 00:45:34;;;;;;;12.93;2.63;;;;;;;13.61;100.00;100314.56;7400977;19;20941;-58
2022/06/19 00:48:08;;;;;;;21.00;3.47;;;;;;;13.58;100.00;100298.91;7393591;19;20431;-58
2022/06/19 00:50:39;;;;;;;25.60;4.33;;;;;;;13.59;100.00;100298.06;7398707;19;20506;-59
2022/06/19 00:53:13;;;;;;;20.23;3.40;;;;;;;13.58;100.00;100282.50;7388773;19;21068;-59
2022/06/19 00:55:46;;;;;;;17.40;3.30;;;;;;;13.55;100.00;100266.88;7400455;19;20934;-56
2022/06/19 00:58:24;;;;;;;20.27;3.07;;;;;;;13.53;100.00;100258.19;7383483;19;20460;-58
2022/06/19 01:01:00;;;;;;;17.70;3.60;;;;;;;13.46;100.00;100254.59;7397576;19;20410;-57
2022/06/19 01:03:36;;;;;;;23.83;4.23;;;;;;;13.41;100.00;100238.03;7384260;19;20526;-58
2022/06/19 01:06:06;;;;;;;17.80;3.77;;;;;;;13.37;100.00;100222.44;7393158;19;20416;-58
2022/06/19 01:08:38;;;;;;;15.43;3.27;;;;;;;13.39;100.00;100213.81;7385308;19;20425;-59
2022/06/19 01:11:08;;;;;;;17.63;3.30;;;;;;;13.36;100.00;100197.38;7390880;19;20411;-59
2022/06/19 01:13:41;;;;;;;22.03;3.70;;;;;;;13.33;100.00;100193.84;7384082;19;20426;-59
2022/06/19 01:16:11;;;;;;;12.67;2.70;;;;;;;13.32;100.00;100197.25;7391441;19;20922;-59
2022/06/19 01:18:41;;;;;;;14.77;3.30;;;;;;;13.29;100.00;100176.47;7385280;19;20423;-58
2022/06/19 01:21:16;;;;;;;17.37;3.30;;;;;;;13.22;100.00;100165.09;7389326;19;20437;-58
2022/06/19 01:23:53;;;;;;;20.57;3.90;;;;;;;13.22;100.00;100149.53;7388092;19;20486;-58
2022/06/19 01:26:25;;;;;;;12.80;3.80;;;;;;;13.14;100.00;100125.19;7395626;19;20402;-59
2022/06/19 01:28:56;;;;;;;23.17;3.50;;;;;;;13.15;100.00;100111.41;7391362;19;20917;-58
2022/06/19 01:31:29;;;;;;;16.10;3.30;;;;;;;13.10;100.00;100093.19;7393927;19;20478;-57
2022/06/19 01:34:01;;;;;;;27.83;3.37;;;;;;;13.07;100.00;100093.09;7386814;19;20424;-58
2022/06/19 01:36:32;;;;;;;23.87;5.13;;;;;;;13.04;100.00;100080.13;7395418;19;20383;-58
2022/06/19 01:39:02;;;;;;;26.27;4.90;;;;;;;13.02;100.00;100061.94;7388362;19;20432;-59
2022/06/19 01:41:36;;;;;;;21.83;4.80;;;;;;;13.02;100.00;100049.00;7393448;19;20437;-58
2022/06/19 01:44:06;;;;;;;17.07;3.80;;;;;;;12.98;100.00;100026.50;7388072;19;20421;-58
2022/06/19 01:46:35;;;;;;;15.20;3.70;;;;;;;13.02;100.00;100015.34;7394893;19;20413;-59
2022/06/19 01:49:05;;;;;;;20.70;4.17;;;;;;;13.00;100.00;99988.56;7388222;19;20945;-57
2022/06/19 01:51:35;;;;;;;13.97;3.10;;;;;;;13.02;100.00;99970.47;7392515;19;20419;-57
2022/06/19 01:54:09;;;;;;;12.60;4.17;;;;;;;12.98;100.00;99954.00;7384630;19;20406;-57
2022/06/19 01:56:41;;;;;;;32.70;8.57;;;;;;;13.02;100.00;99924.72;7394656;19;20392;-58
2022/06/19 01:59:12;;;;;;;61.40;19.00;;;;;;;13.18;100.00;99893.94;7385158;19;20420;-58
2022/06/19 02:01:42;;;;;;;31.10;7.20;;;;;;;13.06;100.00;99877.31;7394853;19;20396;-59
2022/06/19 02:04:12;;;;;;;23.17;5.67;;;;;;;13.08;100.00;99867.84;7386341;19;20448;-58
2022/06/19 02:06:44;;;;;;;19.23;5.07;;;;;;;13.10;100.00;99866.19;7398962;19;20405;-59
2022/06/19 02:09:16;;;;;;;37.37;9.53;;;;;;;13.17;100.00;99858.53;7386484;19;20431;-56
2022/06/19 02:11:48;;;;;;;29.43;9.50;;;;;;;13.16;100.00;99864.53;7394633;19;20397;-58
2022/06/19 02:14:18;;;;;;;20.07;5.50;;;;;;;13.09;100.00;99855.78;7387429;19;20415;-57
2022/06/19 02:16:49;;;;;;;14.53;4.23;;;;;;;12.99;100.00;99853.88;7394214;19;20382;-59
2022/06/19 02:19:20;;;;;;;31.60;9.63;;;;;;;12.95;100.00;99859.00;7384332;19;20771;-57
2022/06/19 02:21:52;;;;;;;25.73;8.47;;;;;;;13.06;100.00;99860.91;7397927;19;20403;-59
2022/06/19 02:24:24;;;;;;;21.67;6.80;;;;;;;13.06;100.00;99848.84;7382772;19;20402;-59
2022/06/19 02:26:58;;;;;;;27.07;5.80;;;;;;;13.10;100.00;99845.47;7400689;19;20394;-58
2022/06/19 02:29:27;;;;;;;13.80;4.10;;;;;;;13.04;100.00;99839.28;7398976;19;20414;-57
2022/06/19 02:31:58;;;;;;;18.00;5.80;;;;;;;12.97;100.00;99820.19;7408364;19;20394;-58
2022/06/19 02:34:30;;;;;;;18.70;4.57;;;;;;;12.97;100.00;99812.41;7401731;19;20519;-59
2022/06/19 02:37:01;;;;;;;19.03;4.40;;;;;;;13.01;100.00;99803.88;7408146;19;20392;-59
2022/06/19 02:39:36;;;;;;;23.00;3.67;;;;;;;13.02;100.00;99784.88;7396992;19;20439;-58
2022/06/19 02:42:33;;;;;;;19.70;3.90;;;;;;;12.95;100.00;99767.50;7408170;19;20395;-58
2022/06/19 02:45:06;;;;;;;18.03;5.70;;;;;;;12.81;100.00;99757.81;7400751;19;20427;-59
2022/06/19 02:47:38;;;;;;;17.20;5.00;;;;;;;12.88;100.00;99743.25;7408235;19;20396;-58
2022/06/19 02:50:10;;;;;;;19.00;5.00;;;;;;;12.87;100.00;99732.88;7405353;19;20448;-57
2022/06/19 02:52:40;;;;;;;23.10;5.50;;;;;;;12.85;100.00;99732.84;7401141;19;20401;-60
2022/06/19 02:55:10;;;;;;;19.47;4.50;;;;;;;12.83;100.00;99727.63;7406807;19;20408;-59
2022/06/19 02:57:43;;;;;;;24.80;4.67;;;;;;;12.70;100.00;99741.22;7401375;19;20395;-60
2022/06/19 03:00:18;;;;;;;20.73;4.30;;;;;;;12.68;100.00;99759.31;7407960;19;20434;-59
2022/06/19 03:02:48;;;;;;;26.37;6.03;;;;;;;12.69;100.00;99766.25;7400769;19;20382;-58
2022/06/19 03:05:21;;;;;;;18.17;3.30;;;;;;;12.64;100.00;99759.22;7406829;19;20410;-59
2022/06/19 03:07:54;;;;;;;25.60;5.63;;;;;;;12.65;100.00;99779.97;7401545;19;20398;-59
2022/06/19 03:10:24;;;;;;;18.10;5.50;;;;;;;12.61;100.00;99785.06;7405092;19;20998;-57
2022/06/19 03:12:56;;;;;;;21.53;4.57;;;;;;;12.54;100.00;99808.25;7396903;19;20388;-60
2022/06/19 03:15:27;;;;;;;15.67;4.60;;;;;;;12.51;100.00;99822.84;7407492;19;20458;-58
2022/06/19 03:17:57;;;;;;;20.70;5.33;;;;;;;12.54;100.00;99833.22;7397061;19;20399;-58
2022/06/19 03:20:28;;;;;;;25.80;5.03;;;;;;;12.50;100.00;99858.19;7404438;19;20424;-59
2022/06/19 03:22:57;;;;;;;15.73;3.80;;;;;;;12.50;100.00;99880.56;7381443;19;20391;-59
2022/06/19 03:25:27;;;;;;;30.20;5.90;;;;;;;12.50;100.00;99903.88;7406662;19;20380;-58
2022/06/19 03:28:00;;;;;;;23.40;4.00;;;;;;;12.47;100.00;99917.63;7400044;19;20405;-58
2022/06/19 03:30:30;;;;;;;18.37;4.30;;;;;;;12.49;100.00;99934.06;7405125;19;20499;-58
2022/06/19 03:32:59;;;;;;;20.13;5.67;;;;;;;12.54;100.00;99918.63;7397037;19;20798;-58
2022/06/19 03:35:29;;;;;;;20.47;5.10;;;;;;;12.56;100.00;99925.56;7406551;19;20416;-57
2022/06/19 03:37:59;;;;;;;25.77;3.90;;;;;;;12.63;100.00;99925.69;7392157;19;20400;-58
2022/06/19 03:40:29;;;;;;;38.37;14.30;;;;;;;12.76;100.00;99930.28;7396678;19;20831;-56
2022/06/19 03:43:01;;;;;;;21.73;4.20;;;;;;;12.67;100.00;99936.13;7385299;19;21140;-59
2022/06/19 03:45:31;;;;;;;26.80;6.50;;;;;;;12.67;100.00;99935.28;7399276;19;20396;-58
2022/06/19 03:48:01;;;;;;;21.90;6.30;;;;;;;12.69;100.00;99925.81;7390038;19;20411;-58
2022/06/19 03:50:31;;;;;;;18.17;4.50;;;;;;;12.66;100.00;99917.97;7397077;19;20400;-56
2022/06/19 03:53:01;;;;;;;28.60;5.80;;;;;;;12.74;100.00;99916.44;7392622;19;20413;-59
2022/06/19 03:55:31;;;;;;;14.23;2.77;;;;;;;12.76;100.00;99899.22;7399127;19;20409;-58
2022/06/19 03:58:03;;;;;;;15.83;3.97;;;;;;;12.76;100.00;99870.75;7385660;19;20419;-58
2022/06/19 04:00:33;;;;;;;20.53;5.07;;;;;;;12.80;100.00;99843.19;7397229;19;20401;-58
2022/06/19 04:03:03;;;;;;;19.40;3.73;;;;;;;12.82;100.00;99829.44;7390879;19;20430;-57
2022/06/19 04:05:34;;;;;;;12.97;3.70;;;;;;;12.86;100.00;99839.88;7398852;19;20410;-59
2022/06/19 04:08:04;;;;;;;21.30;3.70;;;;;;;12.81;100.00;99837.16;7387971;19;20750;-59
2022/06/19 04:10:34;;;;;;;15.57;3.97;;;;;;;12.82;100.00;99857.06;7400683;19;20422;-58
2022/06/19 04:13:07;;;;;;;20.13;4.03;;;;;;;12.89;100.00;99842.50;7388006;19;20933;-57
2022/06/19 04:15:36;;;;;;;19.37;4.30;;;;;;;12.94;100.00;99826.22;7398498;19;20386;-58
2022/06/19 04:18:06;;;;;;;15.63;3.80;;;;;;;12.95;100.00;99821.88;7388136;19;20401;-58
2022/06/19 04:20:36;;;;;;;20.43;3.80;;;;;;;12.96;100.00;99839.16;7395847;19;20428;-57
2022/06/19 04:23:08;;;;;;;16.47;3.77;;;;;;;12.98;100.00;99834.91;7390410;19;20492;-56
2022/06/19 04:25:38;;;;;;;21.27;4.37;;;;;;;12.95;100.00;99830.53;7398007;19;20942;-59
2022/06/19 04:28:10;;;;;;;16.90;4.03;;;;;;;12.95;100.00;99835.72;7376910;19;20416;-59
2022/06/19 04:30:46;;;;;;;16.27;3.97;;;;;;;12.94;100.00;99814.97;7396156;19;20427;-59
2022/06/19 04:33:16;;;;;;;17.00;4.10;;;;;;;12.95;100.00;99803.75;7391270;19;20456;-58
2022/06/19 04:35:47;;;;;;;14.77;3.83;;;;;;;12.96;100.00;99796.03;7397939;19;20459;-58
2022/06/19 04:38:17;;;;;;;16.10;4.43;;;;;;;12.99;100.00;99782.25;7389884;19;20411;-59
2022/06/19 04:40:47;;;;;;;21.57;3.60;;;;;;;13.02;100.00;99777.13;7395247;19;20428;-59
2022/06/19 04:43:19;;;;;;;19.70;6.60;;;;;;;13.10;100.00;99751.34;7389898;19;20455;-59
2022/06/19 04:45:49;;;;;;;23.90;7.33;;;;;;;13.13;100.00;99737.59;7397416;19;20382;-59
2022/06/19 04:48:19;;;;;;;22.77;4.00;;;;;;;13.16;100.00;99735.91;7383813;19;20942;-58
2022/06/19 04:50:49;;;;;;;20.50;3.73;;;;;;;13.19;100.00;99730.75;7392288;19;20934;-59
2022/06/19 04:53:18;;;;;;;24.87;6.33;;;;;;;13.19;100.00;99729.91;7386550;19;20419;-59
2022/06/19 04:55:48;;;;;;;14.07;4.20;;;;;;;13.20;100.00;99722.16;7397122;19;20952;-59
2022/06/19 04:58:22;;;;;;;23.60;5.33;;;;;;;13.29;100.00;99725.72;7387026;19;20423;-59
2022/06/19 05:00:52;;;;;;;26.93;4.77;;;;;;;13.38;100.00;99725.84;7394886;19;20420;-59
2022/06/19 05:03:23;;;;;;;22.53;4.30;;;;;;;13.35;100.00;99737.03;7387986;19;20827;-59
2022/06/19 05:05:55;;;;;;;19.80;4.90;;;;;;;13.55;100.00;99752.03;7400649;19;20465;-59
2022/06/19 05:08:25;;;;;;;28.60;9.40;;;;;;;13.62;100.00;99748.69;7389834;19;20406;-59
2022/06/19 05:10:55;;;;;;;27.60;7.03;;;;;;;13.63;100.00;99767.66;7394582;19;20420;-59
2022/06/19 05:13:28;;;;;;;29.50;8.87;;;;;;;13.64;100.00;99806.56;7383027;19;20420;-58
2022/06/19 05:16:05;;;;;;;27.27;10.53;;;;;;;13.82;100.00;99879.38;7396469;19;20387;-60
2022/06/19 05:18:36;;;;;;;21.67;4.60;;;;;;;13.77;100.00;99895.78;7389202;19;20432;-59
2022/06/19 05:21:07;;;;;;;22.73;8.97;;;;;;;13.79;100.00;99877.63;7393974;19;20834;-59
2022/06/19 05:23:39;;;;;;;20.63;6.70;;;;;;;13.78;100.00;99852.56;7389440;19;20762;-59
2022/06/19 05:26:10;;;;;;;21.83;4.80;;;;;;;13.86;100.00;99847.47;7396036;19;20414;-59
2022/06/19 05:28:43;;;;;;;22.67;8.20;;;;;;;13.83;100.00;99850.00;7371601;19;20419;-59
2022/06/19 05:31:12;;;;;;;15.80;5.00;;;;;;;13.74;100.00;99837.81;7393910;19;20481;-59
2022/06/19 05:33:42;;;;;;;28.57;6.87;;;;;;;13.96;100.00;99828.63;7389333;19;20426;-59
2022/06/19 05:36:12;;;;;;;19.00;6.47;;;;;;;14.09;100.00;99803.69;7395641;19;20389;-59
2022/06/19 05:38:44;;;;;;;37.47;14.47;;;;;;;14.26;100.00;99796.09;7388572;19;20432;-59
2022/06/19 05:41:13;;;;;;;26.43;5.17;;;;;;;14.29;100.00;99766.72;7393556;19;20499;-59
2022/06/19 05:43:46;;;;;;;21.40;7.37;;;;;;;14.37;100.00;99757.31;7387842;19;20411;-58
2022/06/19 05:46:18;;;;;;;19.20;4.67;;;;;;;14.14;100.00;99724.22;7395143;19;20387;-59
2022/06/19 05:48:47;;;;;;;22.27;4.70;;;;;;;14.14;100.00;99729.41;7386593;19;20412;-58
2022/06/19 05:51:19;;;;;;;20.80;4.30;;;;;;;14.09;100.00;99736.25;7393584;19;20991;-58
2022/06/19 05:53:50;;;;;;;15.33;4.07;;;;;;;14.14;100.00;99776.09;7387175;19;20415;-59
2022/06/19 05:56:21;;;;;;;16.63;5.10;;;;;;;14.32;100.00;99805.69;7395031;19;20384;-59
2022/06/19 05:58:53;;;;;;;22.10;4.77;;;;;;;14.12;100.00;99816.72;7367524;19;20416;-59
2022/06/19 06:01:23;;;;;;;18.87;4.20;;;;;;;14.01;100.00;99808.78;7392015;19;20452;-58
2022/06/19 06:03:54;;;;;;;16.50;4.20;;;;;;;14.00;100.00;99801.00;7385405;19;20423;-58
2022/06/19 06:06:26;;;;;;;24.17;4.47;;;;;;;14.02;100.00;99807.94;7394489;19;20390;-59
2022/06/19 06:08:56;;;;;;;12.80;3.53;;;;;;;13.98;100.00;99811.34;7388144;19;20410;-59
2022/06/19 06:11:26;;;;;;;17.53;4.03;;;;;;;13.91;100.00;99784.44;7392989;19;20960;-59
2022/06/19 06:13:59;;;;;;;12.40;4.90;;;;;;;13.80;100.00;99780.88;7387224;19;20431;-59
2022/06/19 06:16:29;;;;;;;18.30;5.33;;;;;;;13.79;100.00;99760.13;7394549;19;20898;-59
2022/06/19 06:18:59;;;;;;;18.10;6.20;;;;;;;13.78;100.00;99746.25;7381967;19;20514;-59
2022/06/19 06:21:30;;;;;;;15.10;4.37;;;;;;;13.80;100.00;99754.94;7392445;19;20433;-57
2022/06/19 06:23:59;;;;;;;13.00;3.83;;;;;;;13.79;100.00;99742.81;7385903;19;20426;-59
2022/06/19 06:26:32;;;;;;;15.53;5.00;;;;;;;13.91;100.00;99742.97;7394023;19;20389;-59
2022/06/19 06:29:06;;;;;;;10.67;2.90;;;;;;;14.04;100.00;99706.81;7373295;19;20442;-57
2022/06/19 06:31:36;;;;;;;13.53;4.10;;;;;;;14.04;100.00;99724.97;7392535;19;20415;-59
2022/06/19 06:34:07;;;;;;;10.50;3.13;;;;;;;14.14;100.00;99712.97;7380987;19;20415;-59
2022/06/19 06:36:36;;;;;;;7.83;2.50;;;;;;;14.03;100.00;99743.97;7394086;19;20383;-59
2022/06/19 06:39:06;;;;;;;5.97;2.47;;;;;;;14.17;100.00;99781.28;7385874;19;20930;-58
2022/06/19 06:41:36;;;;;;;9.57;3.17;;;;;;;14.29;100.00;99831.59;7391732;19;20429;-58
2022/06/19 06:44:08;;;;;;;11.60;2.70;;;;;;;14.29;100.00;99844.56;7386492;19;20399;-59
2022/06/19 06:46:41;;;;;;;14.37;3.37;;;;;;;14.36;100.00;99861.94;7393728;19;20384;-58
2022/06/19 06:49:11;;;;;;;11.90;2.73;;;;;;;14.38;100.00;99878.41;7379145;19;20438;-59
2022/06/19 06:51:41;;;;;;;13.70;3.13;;;;;;;14.28;100.00;99895.59;7391789;19;20400;-56
2022/06/19 06:54:10;;;;;;;7.20;2.70;;;;;;;14.36;100.00;99910.38;7385752;19;20976;-59
2022/06/19 06:56:40;;;;;;;8.13;3.47;;;;;;;14.45;100.00;99911.38;7397023;19;20487;-59
2022/06/19 06:59:14;;;;;;;14.80;4.00;;;;;;;14.64;100.00;99914.19;7385110;19;20416;-59
2022/06/19 07:01:44;;;;;;;11.00;4.00;;;;;;;14.78;100.00;99916.09;7394794;19;20392;-59
2022/06/19 07:04:14;;;;;;;10.40;3.53;;;;;;;14.77;100.00;99919.56;7384912;19;20796;-59
2022/06/19 07:06:44;;;;;;;15.80;3.90;;;;;;;14.92;100.00;99937.88;7396466;19;20391;-59
2022/06/19 07:09:14;;;;;;;6.93;2.10;;;;;;;14.97;100.00;99962.19;7386761;19;20418;-59
2022/06/19 07:11:46;;;;;;;9.13;2.80;;;;;;;15.09;100.00;99968.38;7392983;19;20403;-59
2022/06/19 07:14:20;;;;;;;12.23;3.43;;;;;;;15.24;100.00;99991.06;7391008;19;20424;-59
2022/06/19 07:16:50;;;;;;;10.23;2.57;;;;;;;15.30;100.00;100021.41;7400137;19;20393;-59
2022/06/19 07:19:20;;;;;;;12.60;5.10;;;;;;;15.33;100.00;100026.66;7395609;19;20812;-59
2022/06/19 07:21:50;;;;;;;24.43;12.70;;;;;;;15.40;100.00;100025.88;7399527;19;20472;-59
2022/06/19 07:24:20;;;;;;;12.50;2.67;;;;;;;15.45;100.00;100036.28;7386699;19;20474;-59
2022/06/19 07:26:52;;;;;;;8.50;2.23;;;;;;;15.52;100.00;100038.97;7401641;19;20462;-59
2022/06/19 07:29:24;;;;;;;6.60;1.97;;;;;;;15.62;100.00;100049.44;7377731;19;20481;-60
2022/06/19 07:31:54;;;;;;;9.80;2.07;;;;;;;15.66;100.00;100051.25;7402540;19;20424;-59
2022/06/19 07:34:24;;;;;;;8.73;3.67;;;;;;;15.70;100.00;100053.03;7387727;19;20535;-60
2022/06/19 07:37:01;;;;;;;11.53;2.63;;;;;;;15.73;100.00;100037.44;7399545;19;20737;-59
2022/06/19 07:39:31;;;;;;;13.13;3.40;;;;;;;15.68;100.00;100059.91;7398126;19;20425;-59
2022/06/19 07:42:01;;;;;;;5.63;2.17;;;;;;;15.57;100.00;100067.63;7397515;19;20397;-59
2022/06/19 07:44:34;;;;;;;5.60;2.30;;;;;;;15.55;100.00;100078.84;7391896;19;20423;-60
2022/06/19 07:50:17;;;;;;;7.30;2.37;;;;;;;15.43;100.00;100100.41;7383079;19;20550;-59
2022/06/19 07:52:49;;;;;;;12.27;2.83;;;;;;;15.55;100.00;100094.44;7392643;19;20394;-60
2022/06/19 07:55:21;;;;;;;11.53;2.60;;;;;;;15.58;100.00;100110.94;7398351;19;20401;-60
2022/06/19 07:57:51;;;;;;;9.13;1.97;;;;;;;15.60;100.00;100108.38;7378682;19;20710;-60
2022/06/19 08:00:26;;;;;;;8.87;2.13;;;;;;;15.56;100.00;100109.19;7395695;19;20410;-60
2022/06/19 08:02:56;;;;;;;13.40;2.20;;;;;;;15.65;100.00;100091.09;7386440;19;20378;-59
2022/06/19 08:05:28;;;;;;;6.53;2.13;;;;;;;15.66;100.00;100108.44;7398292;19;20969;-59
2022/06/19 08:08:00;;;;;;;6.80;2.00;;;;;;;15.75;100.00;100128.47;7387196;19;20403;-60
2022/06/19 08:10:31;;;;;;;8.30;2.17;;;;;;;15.80;100.00;100138.06;7396275;19;20781;-60
2022/06/19 08:13:01;;;;;;;7.80;1.80;;;;;;;15.82;100.00;100125.06;7368362;19;20394;-59
2022/06/19 08:15:35;;;;;;;8.50;2.30;;;;;;;15.75;100.00;100155.34;7398006;19;20477;-59
2022/06/19 08:18:05;;;;;;;6.73;1.90;;;;;;;15.69;100.00;100165.66;7391181;19;21058;-60
2022/06/19 08:20:35;;;;;;;9.10;2.40;;;;;;;15.83;100.00;100188.38;7395902;19;20409;-59
2022/06/19 08:23:05;;;;;;;8.63;3.77;;;;;;;15.93;100.00;100196.31;7389511;19;20417;-59
2022/06/19 08:25:36;;;;;;;7.13;2.03;;;;;;;15.90;100.00;100177.19;7397527;19;20432;-59
2022/06/19 08:28:06;;;;;;;5.77;1.93;;;;;;;16.00;100.00;100192.03;7378183;19;20948;-59
2022/06/19 08:30:42;;;;;;;7.03;2.10;;;;;;;15.98;100.00;100219.78;7396549;19;20623;-60
2022/06/19 08:33:13;;;;;;;8.20;2.60;;;;;;;16.03;100.00;100228.50;7390374;19;20412;-59
2022/06/19 08:35:46;;;;;;;5.37;1.53;;;;;;;15.98;100.00;100237.09;7397744;19;20384;-59
2022/06/19 08:38:24;;;;;;;9.33;1.73;;;;;;;16.02;100.00;100216.38;7382739;19;20489;-59
2022/06/19 08:41:19;;;;;;;10.23;2.43;;;;;;;16.08;100.00;100212.06;7395074;19;20481;-59
2022/06/19 08:44:04;;;;;;;10.43;2.40;;;;;;;16.10;100.00;100233.78;7387937;19;20499;-59
2022/06/19 08:46:46;;;;;;;25.00;9.20;;;;;;;16.19;100.00;100228.66;7396554;19;20900;-59
2022/06/19 08:49:25;;;;;;;8.83;1.60;;;;;;;16.17;100.00;100241.69;7384549;19;20441;-59
2022/06/19 08:52:02;;;;;;;8.00;2.00;;;;;;;16.24;100.00;100247.81;7397280;19;20505;-59
2022/06/19 08:54:44;;;;;;;8.13;2.23;;;;;;;16.28;100.00;100254.78;7388190;19;20516;-59
2022/06/19 08:57:20;;;;;;;12.63;2.10;;;;;;;16.33;100.00;100254.84;7400455;19;20766;-59
2022/06/19 08:59:59;;;;;;;9.87;2.33;;;;;;;16.49;100.00;100250.66;7371062;19;20464;-59
2022/06/19 09:02:39;;;;;;;9.47;2.47;;;;;;;16.72;100.00;100248.25;7395235;19;20388;-59
2022/06/19 09:08:19;;;;;;;8.07;1.90;;;;;;;16.51;100.00;100243.72;7389388;19;20429;-59
2022/06/19 09:10:51;;;;;;;9.30;2.17;;;;;;;16.56;100.00;100269.81;7394586;19;20430;-59
2022/06/19 09:13:37;;;;;;;6.93;1.87;;;;;;;16.59;100.00;100265.50;7384432;19;20756;-59
2022/06/19 09:16:14;;;;;;;7.37;1.90;;;;;;;16.58;100.00;100279.41;7396032;19;20389;-59
2022/06/19 09:18:51;;;;;;;8.43;1.80;;;;;;;16.99;100.00;100279.72;7387395;19;20441;-58
2022/06/19 09:21:27;;;;;;;4.83;1.57;;;;;;;17.22;100.00;100286.88;7394479;19;20445;-56
2022/06/19 09:24:11;;;;;;;10.20;1.90;;;;;;;17.49;100.00;100291.38;7389122;19;20766;-59
2022/06/19 09:26:43;;;;;;;9.40;2.73;;;;;;;17.44;100.00;100268.75;7395825;19;20470;-59
2022/06/19 09:29:16;;;;;;;13.80;5.07;;;;;;;17.54;100.00;100273.16;7377505;19;20509;-59
2022/06/19 09:31:49;;;;;;;8.07;2.33;;;;;;;17.36;100.00;100285.22;7398876;19;20412;-57
2022/06/19 09:34:26;;;;;;;10.93;2.47;;;;;;;17.38;100.00;100272.22;7363412;19;20411;-59
2022/06/19 09:36:59;;;;;;;8.50;2.27;;;;;;;17.29;100.00;100267.81;7393646;19;20385;-58
2022/06/19 09:39:42;;;;;;;10.47;4.17;;;;;;;17.48;100.00;100257.47;7385498;19;20415;-59
2022/06/19 09:42:15;;;;;;;12.50;2.50;;;;;;;17.44;100.00;100247.88;7394865;19;20400;-59
2022/06/19 09:44:51;;;;;;;7.50;2.40;;;;;;;17.02;100.00;100227.66;7386998;19;20509;-59
2022/06/19 09:47:23;;;;;;;15.27;2.70;;;;;;;16.76;100.00;100209.22;7394679;19;20418;-59
2022/06/19 09:50:00;;;;;;;8.07;2.60;;;;;;;16.57;100.00;100198.66;7378504;19;20484;-59
2022/06/19 09:52:37;;;;;;;12.73;2.53;;;;;;;16.36;100.00;100204.53;7392529;19;20404;-58
2022/06/19 09:55:12;;;;;;;7.73;3.00;;;;;;;16.20;100.00;100192.25;7391508;19;20537;-59
2022/06/19 09:57:47;;;;;;;6.93;2.70;;;;;;;16.08;100.00;100166.13;7367550;19;20393;-60
2022/06/19 10:00:21;;;;;;;11.53;2.40;;;;;;;15.94;100.00;100147.75;7390426;19;20404;-59
2022/06/19 10:03:18;;;;;;;7.43;2.80;;;;;;;15.74;100.00;100127.59;7382933;19;20489;-58
2022/06/19 10:05:54;;;;;;;11.30;3.13;;;;;;;15.76;100.00;100120.69;7392679;19;20919;-59
2022/06/19 10:08:30;;;;;;;8.20;2.53;;;;;;;15.75;100.00;100113.72;7383200;19;20422;-59
2022/06/19 10:11:03;;;;;;;8.43;2.70;;;;;;;15.80;100.00;100116.41;7393093;19;20429;-59
2022/06/19 10:13:37;;;;;;;10.30;3.00;;;;;;;15.90;100.00;100135.56;7376987;19;20946;-60
2022/06/19 10:16:18;;;;;;;7.53;2.60;;;;;;;15.78;100.00;100146.69;7392883;19;20407;-60
2022/06/19 10:18:54;;;;;;;12.00;2.60;;;;;;;15.73;100.00;100146.66;7386223;19;20436;-61
2022/06/19 10:24:17;;;;;;;9.57;2.80;;;;;;;15.54;100.00;100117.00;7384352;19;20859;-60
2022/06/19 10:26:52;;;;;;;12.27;3.00;;;;;;;15.46;100.00;100101.31;7396290;19;20405;-60
2022/06/19 10:29:33;;;;;;;6.63;2.33;;;;;;;15.47;100.00;100076.16;7365763;19;20514;-60
2022/06/19 10:32:16;;;;;;;12.07;3.73;;;;;;;15.46;100.00;100057.13;7395943;19;20466;-60
2022/06/19 10:34:55;;;;;;;16.27;5.50;;;;;;;15.43;100.00;100044.06;7384561;19;20972;-60
2022/06/19 10:37:34;;;;;;;13.87;3.20;;;;;;;15.45;100.00;100037.19;7393312;19;20387;-60
2022/06/19 10:40:17;;;;;;;10.07;3.00;;;;;;;15.43;100.00;100018.06;7386120;19;20449;-60
2022/06/19 10:43:03;;;;;;;11.03;3.43;;;;;;;15.47;100.00;100008.56;7385883;19;20393;-61
2022/06/19 10:45:37;;;;;;;11.10;3.13;;;;;;;15.46;100.00;100020.72;7393777;19;20798;-60
2022/06/19 10:48:20;;;;;;;9.07;2.67;;;;;;;15.60;100.00;100043.38;7387626;19;20964;-60
2022/06/19 10:51:09;;;;;;;24.13;10.37;;;;;;;15.65;100.00;100045.16;7398238;19;20507;-60
2022/06/19 10:53:58;;;;;;;16.00;3.67;;;;;;;15.60;100.00;100045.97;7387693;19;20437;-60
2022/06/19 10:56:38;;;;;;;15.50;3.87;;;;;;;15.52;100.00;100015.59;7401151;19;20385;-60
2022/06/19 10:59:09;;;;;;;12.57;3.10;;;;;;;15.50;100.00;100014.69;7376876;19;20428;-60
2022/06/19 11:04:29;;;;;;;13.90;4.40;;;;;;;15.48;100.00;99986.97;7396926;19;20443;-60
2022/06/19 11:07:02;;;;;;;11.83;3.63;;;;;;;15.40;100.00;99960.88;7400352;19;20392;-60
2022/06/19 11:09:38;;;;;;;14.10;3.60;;;;;;;15.31;100.00;99919.19;7389870;19;20933;-60
2022/06/19 11:12:14;;;;;;;12.13;2.57;;;;;;;15.39;100.00;99891.56;7400183;19;20428;-60
2022/06/19 11:14:51;;;;;;;18.27;3.13;;;;;;;15.34;100.00;99893.25;7388867;19;20446;-60
2022/06/19 11:17:33;;;;;;;10.03;3.40;;;;;;;15.25;100.00;99897.53;7403335;19;20462;-60
2022/06/19 11:20:26;;;;;;;11.33;3.47;;;;;;;15.34;100.00;99862.06;7395740;19;20442;-60
2022/06/19 11:23:02;;;;;;;17.60;3.20;;;;;;;15.31;100.00;99851.63;7396343;19;20405;-60
2022/06/19 11:25:38;;;;;;;12.80;3.70;;;;;;;15.33;100.00;99839.56;7403651;19;20415;-60
2022/06/19 11:28:11;;;;;;;13.70;3.17;;;;;;;15.30;100.00;99829.13;7383773;19;20491;-60
2022/06/19 11:30:44;;;;;;;11.77;3.53;;;;;;;15.25;100.00;99810.91;7401131;19;20774;-60
2022/06/19 11:33:17;;;;;;;12.87;3.30;;;;;;;15.24;100.00;99816.97;7396392;19;20428;-60
2022/06/19 11:35:49;;;;;;;15.07;4.40;;;;;;;15.32;100.00;99827.38;7403310;19;20777;-60
2022/06/19 11:38:20;;;;;;;13.43;3.63;;;;;;;15.31;100.00;99836.03;7390309;19;20447;-60
2022/06/19 11:40:52;;;;;;;12.37;3.40;;;;;;;15.34;100.00;99830.88;7400898;19;20419;-60
2022/06/19 11:43:30;;;;;;;16.53;3.07;;;;;;;15.42;100.00;99808.41;7390158;19;20434;-60
2022/06/19 11:46:08;;;;;;;11.53;3.33;;;;;;;15.39;100.00;99813.59;7402590;19;20405;-60
2022/06/19 11:48:38;;;;;;;14.40;4.30;;;;;;;15.41;100.00;99798.88;7391971;19;20534;-60
2022/06/19 11:51:18;;;;;;;15.67;3.60;;;;;;;15.25;100.00;99788.41;7400148;19;20453;-60